VTN weather

Miller Field
Valentine, Nebraska, United States

Public forecast

Using degrees Fahrenheit for public forecast. Weather courtesy of forecast.io.

Current aviation weather report (METAR) for Miller Field

Retrieved 2019/10/17 05:52 UTC (55 minutes ago):

KVTN 170552Z AUTO 00000KT 10SM CLR 07/M01 A2990 RMK AO2 SLP127 T00671006 10144 20056 402061050 58007

Aviation forecast (TAF) for Miller Field

Retrieved 2019/10/17 06:22 UTC (25 minutes ago):

TAF KVTN 170520Z 1706/1806 VRB05KT P6SM FEW250 FM171700 17011KT P6SM SCT250 FM172000 17014G20KT P6SM SCT250 FM180100 17012KT P6SM SCT250 FM180300 17012KT P6SM SCT250 WS020/20040KT